Time;durP1;ratioP1;P1;durP2;ratioP2;P2;SDS_P1;SDS_P2;PMS_P1;PMS_P2;Temp;Humidity;BMP_temperature;BMP_pressure;BME280_temperature;BME280_humidity;BME280_pressure;Samples;Min_cycle;Max_cycle;Signal;HPM_P1;HPM_P2
2022/05/26 00:02:17;;;;;;;1.95;1.75;;;;;;;17.25;62.21;100152.94;4377828;32;33227;-92
2022/05/26 00:05:10;;;;;;;2.95;2.05;;;;;;;17.33;61.98;100158.63;4362754;32;31859;-91
2022/05/26 00:07:52;;;;;;;2.45;1.25;;;;;;;17.48;61.55;100155.91;4394683;32;32614;-91
2022/05/26 00:10:34;;;;;;;3.70;1.67;;;;;;;17.73;60.45;100150.66;4364600;32;33062;-91
2022/05/26 00:13:03;;;;;;;2.45;1.90;;;;;;;17.66;60.54;100158.22;4354714;32;33414;-90
2022/05/26 00:15:31;;;;;;;4.35;2.15;;;;;;;17.56;61.06;100153.56;4355356;32;33547;-89
2022/05/26 00:17:59;;;;;;;3.20;2.00;;;;;;;17.45;61.03;100169.44;4334389;32;32884;-89
2022/05/26 00:20:28;;;;;;;2.10;1.80;;;;;;;17.61;60.35;100155.00;4355239;32;35418;-89
2022/05/26 00:22:57;;;;;;;2.97;1.80;;;;;;;17.50;60.69;100165.50;4353337;32;33849;-91
2022/05/26 00:25:31;;;;;;;1.70;1.60;;;;;;;17.29;61.45;100175.81;4354779;32;33029;-90
2022/05/26 00:27:59;;;;;;;3.10;2.67;;;;;;;17.44;60.71;100173.94;4364212;32;33259;-91
2022/05/26 00:30:27;;;;;;;2.00;1.80;;;;;;;17.59;60.27;100170.25;4347128;32;33551;-91
2022/05/26 00:33:13;;;;;;;2.80;2.12;;;;;;;17.56;60.18;100180.25;4352784;32;32653;-92
2022/05/26 00:36:09;;;;;;;2.20;2.00;;;;;;;17.45;60.50;100177.47;4336397;32;32154;-89
2022/05/26 00:38:41;;;;;;;3.37;2.40;;;;;;;17.13;61.24;100183.94;4369141;32;33865;-88
2022/05/26 00:41:13;;;;;;;3.17;2.20;;;;;;;17.24;61.33;100196.59;4353792;32;34382;-89
2022/05/26 00:43:43;;;;;;;2.45;2.15;;;;;;;17.20;61.25;100195.09;4352751;32;32812;-90
2022/05/26 00:46:35;;;;;;;4.80;2.50;;;;;;;17.19;61.29;100193.37;4356620;32;32323;-90
2022/05/26 00:49:03;;;;;;;3.92;2.05;;;;;;;17.47;60.07;100196.87;4358282;32;32275;-89
2022/05/26 00:51:34;;;;;;;2.65;2.40;;;;;;;17.29;60.68;100188.31;4365595;32;33936;-89
2022/05/26 00:54:05;;;;;;;4.15;2.35;;;;;;;17.17;60.88;100189.94;4359363;32;34217;-90
2022/05/26 00:56:58;;;;;;;2.80;2.50;;;;;;;17.02;61.55;100188.25;4334757;32;32494;-90
2022/05/26 00:59:36;;;;;;;7.65;2.35;;;;;;;17.22;60.68;100197.66;4348073;32;33786;-90
2022/05/26 01:02:05;;;;;;;2.83;2.20;;;;;;;16.89;61.59;100196.19;4312612;32;33981;-90
2022/05/26 01:04:42;;;;;;;3.28;2.50;;;;;;;16.74;62.32;100202.50;4357094;32;33124;-89
2022/05/26 01:07:19;;;;;;;2.90;2.58;;;;;;;16.70;62.40;100203.59;4346958;32;32530;-89
2022/05/26 01:09:47;;;;;;;2.67;2.47;;;;;;;16.79;62.07;100201.25;4359349;32;34305;-90
2022/05/26 01:12:18;;;;;;;3.28;2.70;;;;;;;16.63;62.40;100211.13;4359780;32;33898;-91
2022/05/26 01:15:18;;;;;;;3.37;2.37;;;;;;;16.81;61.84;100215.34;4357468;32;32985;-90
2022/05/26 01:18:04;;;;;;;2.30;2.10;;;;;;;16.84;61.88;100214.28;4362246;32;34117;-90
2022/05/26 01:20:51;;;;;;;2.83;2.10;;;;;;;16.80;61.63;100218.09;4347562;32;33149;-91
2022/05/26 01:23:41;;;;;;;4.93;2.92;;;;;;;17.01;60.93;100215.91;4374570;32;33921;-90
2022/05/26 01:26:31;;;;;;;3.67;3.08;;;;;;;16.88;61.07;100210.47;4360507;32;32718;-90
2022/05/26 01:29:37;;;;;;;5.22;2.85;;;;;;;16.81;61.15;100214.50;4375195;32;33325;-90
2022/05/26 01:32:28;;;;;;;3.53;2.58;;;;;;;16.51;61.98;100207.41;4369918;32;33095;-90
2022/05/26 01:35:30;;;;;;;2.62;2.12;;;;;;;16.55;62.08;100202.75;4371666;32;32740;-89
2022/05/26 01:38:05;;;;;;;5.68;2.97;;;;;;;16.52;62.22;100198.47;4355786;32;33627;-89
2022/05/26 01:40:52;;;;;;;2.75;2.45;;;;;;;16.44;62.25;100205.22;4357656;32;32269;-90
2022/05/26 01:43:39;;;;;;;4.05;2.85;;;;;;;16.48;62.26;100206.75;4373314;32;32464;-89
2022/05/26 01:46:22;;;;;;;2.75;2.50;;;;;;;16.13;63.20;100213.25;4361660;32;33178;-89
2022/05/26 01:48:57;;;;;;;3.87;2.42;;;;;;;16.40;62.61;100212.56;4374999;32;32341;-91
2022/05/26 01:52:15;;;;;;;3.97;2.12;;;;;;;16.21;62.78;100214.63;4367257;32;32342;-90
2022/05/26 01:58:03;;;;;;;4.70;2.53;;;;;;;16.30;62.69;100224.72;4375012;32;32949;-91
2022/05/26 02:00:46;;;;;;;3.67;2.15;;;;;;;16.59;61.20;100230.94;4351250;32;32973;-91
2022/05/26 02:03:19;;;;;;;3.75;2.72;;;;;;;16.49;61.47;100235.97;4355510;32;33257;-90
2022/05/26 02:05:58;;;;;;;;;;;;;;;16.52;61.40;100230.47;4349446;32;33840;-90
2022/05/26 02:08:34;;;;;;;2.70;2.33;;;;;;;16.64;60.93;100239.50;4352864;32;33037;-90
2022/05/26 02:11:19;;;;;;;2.80;2.50;;;;;;;16.56;61.49;100237.31;4358142;32;33367;-92
2022/05/26 02:14:15;;;;;;;3.47;2.78;;;;;;;16.51;61.61;100247.37;4381938;32;31843;-91
2022/05/26 02:16:49;;;;;;;3.72;2.67;;;;;;;16.20;62.90;100252.88;4368344;32;33191;-91
2022/05/26 02:19:34;;;;;;;3.60;3.05;;;;;;;16.34;62.37;100244.91;4357098;32;33665;-90
2022/05/26 02:22:25;;;;;;;3.85;3.22;;;;;;;16.63;61.17;100253.78;4333671;33;32834;-91
2022/05/26 02:25:18;;;;;;;3.67;3.25;;;;;;;16.45;61.98;100261.09;4355509;32;32461;-94
2022/05/26 02:28:00;;;;;;;4.45;3.70;;;;;;;16.28;62.78;100258.59;4361215;32;32778;-93
2022/05/26 02:31:54;;;;;;;4.55;3.30;;;;;;;15.98;63.70;100262.12;4356297;32;35447;-91
2022/05/26 02:34:39;;;;;;;5.30;3.58;;;;;;;15.81;64.61;100265.78;4327289;33;33334;-89
2022/05/26 02:37:09;;;;;;;3.92;3.53;;;;;;;15.93;64.04;100266.88;4334041;33;34118;-89
2022/05/26 02:39:39;;;;;;;5.15;3.70;;;;;;;16.04;63.74;100266.22;4337464;33;34038;-89
2022/05/26 02:42:14;;;;;;;4.62;4.10;;;;;;;15.82;64.44;100271.97;4314112;33;32835;-89
2022/05/26 02:44:44;;;;;;;4.87;3.92;;;;;;;15.70;65.06;100262.00;4335088;33;32377;-91
2022/05/26 02:47:23;;;;;;;4.47;4.03;;;;;;;15.57;65.59;100268.03;4325206;33;33345;-93
2022/05/26 02:50:16;;;;;;;9.60;3.97;;;;;;;15.39;65.96;100263.75;4371384;32;32803;-92
2022/05/26 02:53:19;;;;;;;4.82;4.03;;;;;;;15.73;64.80;100267.19;4372588;32;32870;-92
2022/05/26 02:56:27;;;;;;;5.25;4.57;;;;;;;15.53;65.53;100266.47;4373949;32;32634;-95
2022/05/26 02:59:51;;;;;;;5.10;4.28;;;;;;;15.64;65.26;100263.22;4381545;32;33401;-95
2022/05/26 03:03:37;;;;;;;6.57;4.10;;;;;;;15.88;64.47;100261.81;4468302;27;20110;-95
2022/05/26 03:06:29;;;;;;;5.40;4.20;;;;;;;15.99;63.97;100261.16;4359785;32;32702;-93
2022/05/26 03:09:25;;;;;;;6.75;4.32;;;;;;;16.06;63.64;100267.00;4353283;32;34560;-93
2022/05/26 03:12:24;;;;;;;7.57;4.20;;;;;;;15.78;64.33;100275.75;4389301;32;32921;-93
2022/05/26 03:15:09;;;;;;;5.65;3.95;;;;;;;15.96;63.31;100269.38;4376405;32;33428;-93
2022/05/26 03:17:51;;;;;;;7.80;3.62;;;;;;;16.07;62.81;100269.59;4383273;32;34568;-92
2022/05/26 03:20:34;;;;;;;6.10;3.65;;;;;;;16.15;62.41;100273.63;4373415;32;34422;-92
2022/05/26 03:27:39;;;;;;;4.70;3.95;;;;;;;15.92;63.01;100288.28;4349659;33;34732;-92
2022/05/26 03:30:21;;;;;;;;;;;;;;;15.72;63.94;100300.06;4383488;32;32924;-92
2022/05/26 03:33:03;;;;;;;4.40;3.45;;;;;;;15.78;64.12;100303.22;4338471;32;32837;-92
2022/05/26 03:41:49;;;;;;;3.83;3.47;;;;;;;16.13;63.23;100303.84;4371669;32;32697;-93
2022/05/26 03:44:32;;;;;;;8.48;3.92;;;;;;;16.27;62.78;100311.03;4382042;32;32333;-91
2022/05/26 03:49:37;;;;;;;9.20;4.05;;;;;;;16.46;62.47;100310.78;4398831;32;32350;-91
2022/05/26 03:52:09;;;;;;;4.07;3.67;;;;;;;16.83;60.99;100316.59;4392093;32;32901;-91
2022/05/26 03:54:45;;;;;;;5.22;4.47;;;;;;;16.64;61.85;100315.00;4391131;32;32964;-91
2022/05/26 03:57:27;;;;;;;5.75;4.18;;;;;;;16.83;61.73;100319.25;4378546;32;32819;-90
2022/05/26 03:59:56;;;;;;;4.85;4.35;;;;;;;17.24;60.21;100318.50;4368324;32;32695;-91
2022/05/26 04:02:46;;;;;;;5.65;4.15;;;;;;;17.20;60.40;100327.66;4375943;32;33339;-91
2022/05/26 04:05:17;;;;;;;5.90;4.68;;;;;;;17.05;61.26;100322.31;4367758;32;32428;-91
2022/05/26 04:07:47;;;;;;;8.23;4.45;;;;;;;17.21;60.76;100326.69;4391399;32;32315;-94
2022/05/26 04:10:29;;;;;;;4.53;4.05;;;;;;;17.25;60.70;100338.91;4367424;32;33998;-95
2022/05/26 04:13:12;;;;;;;5.65;4.32;;;;;;;17.57;59.74;100337.72;4365367;32;33643;-94
2022/05/26 04:15:54;;;;;;;5.47;4.72;;;;;;;17.71;59.00;100343.97;4366101;32;32689;-89
2022/05/26 04:18:24;;;;;;;5.07;4.57;;;;;;;17.61;59.90;100349.94;4379939;32;34194;-94
2022/05/26 04:21:09;;;;;;;5.70;4.12;;;;;;;17.64;59.80;100347.03;4373380;32;32776;-93
2022/05/26 04:24:03;;;;;;;5.35;3.83;;;;;;;17.87;59.55;100350.06;4364795;32;34452;-93
2022/05/26 04:26:42;;;;;;;8.25;4.43;;;;;;;17.80;59.40;100349.63;4392118;32;32844;-92
2022/05/26 04:29:39;;;;;;;3.70;3.30;;;;;;;17.74;59.81;100357.16;4366067;32;33969;-92
2022/05/26 04:32:26;;;;;;;6.78;4.45;;;;;;;18.16;58.50;100351.69;4393685;32;33297;-95
2022/05/26 04:35:09;;;;;;;5.32;3.50;;;;;;;18.42;57.55;100355.31;4364572;32;33859;-88
2022/05/26 04:37:39;;;;;;;7.20;3.97;;;;;;;18.31;57.57;100363.16;4365183;32;32754;-88
2022/05/26 04:40:21;;;;;;;4.53;3.85;;;;;;;18.20;57.35;100356.84;4348743;32;33155;-88
2022/05/26 04:42:53;;;;;;;4.70;3.60;;;;;;;18.19;57.17;100360.47;4377457;32;33022;-89
2022/05/26 04:45:21;;;;;;;4.03;3.47;;;;;;;18.52;56.12;100360.88;4365048;32;34162;-88
2022/05/26 04:47:50;;;;;;;4.07;3.70;;;;;;;18.55;56.62;100360.66;4365547;32;33025;-89
2022/05/26 04:50:18;;;;;;;3.87;3.15;;;;;;;18.52;56.95;100360.88;4364277;32;32778;-88
2022/05/26 04:52:46;;;;;;;3.90;3.40;;;;;;;18.32;56.71;100362.19;4363979;32;33343;-89
2022/05/26 04:55:15;;;;;;;4.45;3.17;;;;;;;18.82;55.56;100354.41;4354167;32;33217;-89
2022/05/26 04:57:43;;;;;;;4.70;3.65;;;;;;;18.91;55.96;100364.50;4361293;32;33305;-90
2022/05/26 05:00:18;;;;;;;2.92;2.70;;;;;;;19.05;56.42;100367.06;4363452;32;32274;-89
2022/05/26 05:03:08;;;;;;;3.28;3.00;;;;;;;19.19;54.78;100366.94;4384544;32;32780;-88
2022/05/26 05:08:25;;;;;;;3.15;2.72;;;;;;;19.32;53.96;100380.34;4381017;32;32752;-89
2022/05/26 05:10:57;;;;;;;5.15;3.10;;;;;;;19.27;54.35;100381.59;4372136;32;34180;-89
2022/05/26 05:13:29;;;;;;;7.53;2.80;;;;;;;19.30;53.25;100376.03;4381564;32;33564;-87
2022/05/26 05:16:09;;;;;;;4.65;2.85;;;;;;;19.25;53.96;100380.84;4373721;32;34382;-91
2022/05/26 05:18:58;;;;;;;3.37;2.97;;;;;;;19.24;53.73;100382.69;4381824;32;32856;-91
2022/05/26 05:22:00;;;;;;;3.00;2.70;;;;;;;19.18;53.77;100392.00;4374731;32;31930;-91
2022/05/26 05:24:39;;;;;;;2.90;2.60;;;;;;;18.98;54.65;100397.03;4385507;32;33288;-90
2022/05/26 05:27:26;;;;;;;3.67;2.78;;;;;;;19.28;53.87;100394.91;4384423;32;33399;-91
2022/05/26 05:29:57;;;;;;;3.22;2.65;;;;;;;19.13;53.26;100390.59;4365276;32;33224;-92
2022/05/26 05:32:28;;;;;;;4.57;2.83;;;;;;;18.97;54.12;100398.84;4382022;32;32381;-90
2022/05/26 05:35:14;;;;;;;4.15;2.92;;;;;;;19.05;54.27;100401.84;4385947;32;34989;-91
2022/05/26 05:37:44;;;;;;;3.20;2.62;;;;;;;19.15;54.29;100413.63;4365776;32;32942;-93
2022/05/26 05:40:30;;;;;;;3.17;2.67;;;;;;;19.16;54.65;100411.81;4359940;32;33423;-93
2022/05/26 05:43:14;;;;;;;3.87;2.65;;;;;;;19.35;53.69;100411.38;4349332;32;32713;-93
2022/05/26 05:45:56;;;;;;;4.97;2.50;;;;;;;19.26;54.64;100422.72;4354138;32;33052;-95
2022/05/26 05:48:39;;;;;;;3.97;2.42;;;;;;;19.43;54.55;100419.72;4373045;32;33631;-93
2022/05/26 05:51:21;;;;;;;2.45;2.22;;;;;;;19.89;51.98;100411.97;4363290;32;33552;-90
2022/05/26 05:53:51;;;;;;;4.93;2.28;;;;;;;20.10;51.26;100414.91;4372708;32;32650;-90
2022/05/26 05:56:19;;;;;;;2.75;1.87;;;;;;;19.95;52.27;100418.69;4387941;32;33963;-89
2022/05/26 05:58:53;;;;;;;2.40;2.00;;;;;;;19.86;51.80;100414.00;4380122;32;33176;-89
2022/05/26 06:01:27;;;;;;;2.17;1.52;;;;;;;20.09;51.78;100418.56;4381097;32;33159;-90
2022/05/26 06:04:01;;;;;;;4.35;2.17;;;;;;;20.07;50.83;100416.94;4392764;32;32285;-89
2022/05/26 06:06:38;;;;;;;4.93;1.60;;;;;;;20.11;50.81;100411.25;4392537;32;34329;-91
2022/05/26 06:09:13;;;;;;;4.53;1.60;;;;;;;20.23;49.80;100414.00;4392680;32;32863;-90
2022/05/26 06:11:47;;;;;;;2.42;1.75;;;;;;;20.29;49.90;100424.25;4392928;32;32741;-90
2022/05/26 06:14:32;;;;;;;1.65;1.55;;;;;;;20.40;50.60;100424.31;4374794;32;33137;-92
2022/05/26 06:17:03;;;;;;;1.95;1.60;;;;;;;20.59;49.91;100429.19;4357463;32;33440;-88
2022/05/26 06:19:31;;;;;;;2.17;1.85;;;;;;;21.05;49.14;100426.53;4365299;32;33979;-86
2022/05/26 06:21:58;;;;;;;1.50;1.30;;;;;;;21.30;48.54;100427.31;4363459;32;32262;-88
2022/05/26 06:24:27;;;;;;;1.65;1.23;;;;;;;21.35;48.49;100425.12;4376265;32;33120;-89
2022/05/26 06:26:54;;;;;;;1.48;1.17;;;;;;;21.66;47.11;100437.88;4365676;32;32779;-89
2022/05/26 06:37:49;;;;;;;1.62;1.02;;;;;;;21.67;47.36;100466.44;4377312;32;32537;-89
2022/05/26 06:40:20;;;;;;;4.47;0.77;;;;;;;22.03;45.50;100464.47;4366736;32;33976;-89
2022/05/26 06:42:48;;;;;;;2.58;0.82;;;;;;;21.71;46.88;100467.91;4372351;32;33180;-89
2022/05/26 06:45:21;;;;;;;1.92;1.00;;;;;;;21.75;48.36;100470.38;4361397;32;32708;-89
2022/05/26 06:47:48;;;;;;;1.17;1.03;;;;;;;22.03;47.12;100469.84;4374289;32;34118;-88
2022/05/26 06:50:17;;;;;;;3.20;1.33;;;;;;;22.28;47.06;100460.66;4353888;32;33040;-89
2022/05/26 06:52:46;;;;;;;2.35;1.40;;;;;;;22.18;47.65;100463.25;4360161;32;33072;-89
2022/05/26 06:55:15;;;;;;;1.23;0.95;;;;;;;22.43;47.10;100458.53;4372610;32;33923;-89
2022/05/26 06:57:44;;;;;;;3.45;1.45;;;;;;;22.45;48.12;100454.72;4384448;32;33815;-88
2022/05/26 07:00:15;;;;;;;3.97;1.15;;;;;;;22.86;46.58;100454.94;4372514;32;34179;-90
2022/05/26 07:02:43;;;;;;;1.13;1.03;;;;;;;22.76;47.69;100452.19;4369556;32;33605;-89
2022/05/26 07:05:13;;;;;;;1.87;1.30;;;;;;;22.94;48.39;100449.81;4362066;32;33140;-90
2022/05/26 07:07:42;;;;;;;1.73;1.05;;;;;;;22.96;46.95;100445.97;4383853;32;33690;-89
2022/05/26 07:10:13;;;;;;;2.58;1.25;;;;;;;23.05;46.77;100447.03;4361849;32;33749;-89
2022/05/26 07:12:43;;;;;;;1.30;1.20;;;;;;;23.23;46.52;100450.84;4360254;32;33970;-89
2022/05/26 07:15:13;;;;;;;2.00;1.12;;;;;;;23.40;45.94;100441.28;4366036;32;31523;-89
2022/05/26 07:17:48;;;;;;;1.02;0.93;;;;;;;23.56;44.94;100446.22;4375278;32;33183;-89
2022/05/26 07:20:18;;;;;;;4.30;1.83;;;;;;;23.68;44.22;100447.84;4362738;32;33044;-90
2022/05/26 07:22:47;;;;;;;1.70;1.55;;;;;;;23.65;44.77;100452.69;4370695;32;33776;-89
2022/05/26 07:25:16;;;;;;;3.10;1.35;;;;;;;24.08;44.98;100451.56;4361906;32;33021;-90
2022/05/26 07:27:44;;;;;;;2.70;1.45;;;;;;;23.94;44.16;100450.94;4364498;32;34277;-89
2022/05/26 07:30:13;;;;;;;5.97;1.37;;;;;;;23.92;43.54;100454.75;4361644;32;33961;-90
2022/05/26 07:32:42;;;;;;;2.83;0.90;;;;;;;23.57;45.99;100453.31;4360399;32;33653;-89
2022/05/26 07:35:13;;;;;;;2.12;1.17;;;;;;;23.80;45.96;100456.72;4360107;32;32276;-89
2022/05/26 07:43:18;;;;;;;2.00;1.30;;;;;;;23.94;44.09;100460.87;4371493;32;32514;-89
2022/05/26 07:45:49;;;;;;;1.15;0.88;;;;;;;24.10;45.22;100466.59;4374188;32;32369;-89
2022/05/26 07:48:17;;;;;;;4.60;1.20;;;;;;;24.57;43.47;100461.44;4360648;32;33842;-89
2022/05/26 07:50:46;;;;;;;1.37;1.00;;;;;;;24.63;43.72;100474.37;4361325;32;34949;-90
2022/05/26 07:53:15;;;;;;;1.30;0.88;;;;;;;24.81;43.18;100466.44;4360081;32;34152;-89
2022/05/26 07:55:44;;;;;;;1.73;0.90;;;;;;;24.94;43.82;100463.44;4370847;32;33722;-89
2022/05/26 07:58:12;;;;;;;1.98;1.20;;;;;;;25.09;45.54;100469.31;4359920;32;32853;-90
2022/05/26 08:00:41;;;;;;;3.08;0.82;;;;;;;24.96;42.68;100464.16;4365870;32;33369;-88
2022/05/26 08:03:12;;;;;;;1.73;0.90;;;;;;;25.15;41.72;100472.25;4357790;32;32827;-90
2022/05/26 08:05:42;;;;;;;4.32;1.02;;;;;;;25.20;41.88;100472.69;4369948;32;32626;-90
2022/05/26 08:08:12;;;;;;;1.67;0.98;;;;;;;25.51;41.09;100470.63;4371815;32;34849;-88
2022/05/26 08:10:43;;;;;;;1.92;1.17;;;;;;;25.45;40.58;100470.38;4358862;32;32725;-87
2022/05/26 08:13:11;;;;;;;1.52;1.00;;;;;;;25.20;41.39;100469.97;4349141;32;34098;-89
2022/05/26 08:15:42;;;;;;;1.90;1.12;;;;;;;25.29;41.00;100477.22;4361200;32;33281;-89
2022/05/26 08:18:11;;;;;;;3.95;1.17;;;;;;;25.37;39.69;100460.28;4355477;32;33145;-89
2022/05/26 08:20:39;;;;;;;1.27;0.70;;;;;;;25.67;40.25;100458.31;4368641;32;33507;-89
2022/05/26 08:23:08;;;;;;;1.15;0.73;;;;;;;25.33;39.89;100466.12;4379901;32;33933;-89
2022/05/26 08:25:37;;;;;;;0.60;0.60;;;;;;;24.93;38.89;100468.00;4344254;32;32531;-89
2022/05/26 08:28:06;;;;;;;0.85;0.75;;;;;;;24.63;40.14;100471.69;4364355;32;32763;-89
2022/05/26 08:30:43;;;;;;;1.17;0.80;;;;;;;24.52;41.64;100474.53;4369553;32;32915;-86
2022/05/26 08:33:14;;;;;;;0.80;0.80;;;;;;;24.89;41.31;100463.87;4361683;32;33268;-88
2022/05/26 08:35:42;;;;;;;0.62;0.62;;;;;;;24.97;39.98;100460.44;4361757;32;32701;-90
2022/05/26 08:40:50;;;;;;;1.30;0.73;;;;;;;24.82;41.37;100462.72;4371090;32;33537;-87
2022/05/26 08:43:24;;;;;;;2.28;1.25;;;;;;;25.19;38.45;100468.28;4372697;32;32622;-86
2022/05/26 08:45:54;;;;;;;7.97;0.88;;;;;;;25.22;40.55;100459.91;4364925;32;32268;-86
2022/05/26 08:48:49;;;;;;;1.02;0.80;;;;;;;25.50;40.42;100466.22;4347631;32;33384;-86
2022/05/26 08:51:26;;;;;;;2.75;1.33;;;;;;;25.77;39.48;100457.31;4384260;32;33942;-88
2022/05/26 08:54:00;;;;;;;0.55;0.52;;;;;;;26.07;38.68;100463.47;4384772;32;32714;-85
2022/05/26 08:56:32;;;;;;;2.08;0.90;;;;;;;26.11;37.42;100470.28;4371767;32;33534;-84
2022/05/26 08:59:09;;;;;;;2.60;0.80;;;;;;;25.90;37.58;100469.66;4372201;32;33290;-86
2022/05/26 09:01:38;;;;;;;0.73;0.47;;;;;;;25.70;39.61;100469.72;4377478;32;33169;-86
2022/05/26 09:04:10;;;;;;;0.95;0.70;;;;;;;25.73;40.56;100466.72;4371902;32;33013;-86
2022/05/26 09:13:02;;;;;;;0.93;0.82;;;;;;;27.02;36.07;100467.50;4365153;32;33253;-90
2022/05/26 09:16:04;;;;;;;1.17;0.80;;;;;;;26.57;35.01;100475.72;4355054;32;32533;-86
2022/05/26 09:18:37;;;;;;;1.95;0.95;;;;;;;26.49;37.44;100468.34;4340502;32;33087;-88
2022/05/26 09:21:17;;;;;;;0.60;0.60;;;;;;;26.68;38.00;100476.34;4351033;32;32860;-84
2022/05/26 09:23:47;;;;;;;1.45;0.50;;;;;;;26.66;38.71;100477.50;4356780;32;33073;-84
2022/05/26 09:26:18;;;;;;;3.95;0.80;;;;;;;26.76;34.96;100473.69;4347329;32;33858;-85
2022/05/26 09:28:52;;;;;;;1.37;0.60;;;;;;;27.03;34.23;100469.19;4367121;32;33302;-85
2022/05/26 09:31:33;;;;;;;1.65;0.65;;;;;;;26.89;33.86;100461.63;4360437;32;32084;-86
2022/05/26 09:34:15;;;;;;;2.08;0.57;;;;;;;27.28;33.19;100464.84;4356353;32;32242;-88
2022/05/26 09:36:50;;;;;;;0.93;0.37;;;;;;;26.99;33.61;100456.97;4354729;32;33468;-88
2022/05/26 09:39:25;;;;;;;1.08;0.65;;;;;;;27.43;31.63;100467.81;4353581;32;33170;-88
2022/05/26 09:41:55;;;;;;;3.10;0.57;;;;;;;27.77;33.45;100457.00;4340243;32;32661;-88
2022/05/26 09:44:30;;;;;;;1.25;0.70;;;;;;;26.80;34.39;100466.97;4352152;32;33511;-87
2022/05/26 09:47:03;;;;;;;1.35;0.50;;;;;;;27.06;37.09;100468.84;4330097;32;33155;-87
2022/05/26 09:49:39;;;;;;;2.72;0.70;;;;;;;26.85;36.09;100455.66;4358310;32;32927;-88
2022/05/26 09:52:17;;;;;;;1.25;0.85;;;;;;;27.34;34.66;100463.34;4356318;32;32831;-88
2022/05/26 09:54:47;;;;;;;2.97;0.60;;;;;;;27.76;32.21;100460.75;4343959;32;33780;-88
2022/05/26 09:57:20;;;;;;;0.57;0.30;;;;;;;28.02;32.38;100460.69;4352431;32;32241;-89
2022/05/26 09:59:48;;;;;;;1.55;0.65;;;;;;;27.24;30.22;100461.56;4353916;32;32934;-88
2022/05/26 10:02:40;;;;;;;1.67;0.55;;;;;;;27.65;31.21;100455.56;4356351;32;34052;-88
2022/05/26 10:05:50;;;;;;;1.50;0.50;;;;;;;28.22;29.27;100455.84;4345031;32;34623;-87
2022/05/26 10:11:44;;;;;;;0.68;0.50;;;;;;;28.29;30.24;100456.88;4353697;32;31243;-87
2022/05/26 10:14:43;;;;;;;4.43;0.68;;;;;;;28.41;32.07;100452.03;4352254;32;32242;-88
2022/05/26 10:17:19;;;;;;;4.68;0.80;;;;;;;27.78;29.95;100462.28;4336757;32;33282;-88
2022/05/26 10:20:18;;;;;;;1.10;0.30;;;;;;;28.48;29.35;100447.59;4365392;32;32699;-88
2022/05/26 10:23:06;;;;;;;1.50;0.40;;;;;;;28.56;27.40;100458.50;4352123;32;34206;-89
2022/05/26 10:25:44;;;;;;;7.30;0.40;;;;;;;28.37;29.51;100450.66;4354550;32;34654;-88
2022/05/26 10:28:16;;;;;;;3.75;0.32;;;;;;;28.91;27.27;100446.44;4357786;32;32821;-88
2022/05/26 10:31:14;;;;;;;0.85;0.30;;;;;;;28.65;29.18;100457.50;4368146;32;34030;-88
2022/05/26 10:33:54;;;;;;;1.35;0.40;;;;;;;28.75;27.77;100451.88;4367069;32;33053;-88
2022/05/26 10:36:34;;;;;;;4.03;0.40;;;;;;;28.99;25.21;100448.34;4368097;32;33051;-88
2022/05/26 10:42:06;;;;;;;0.25;0.25;;;;;;;28.76;25.02;100440.84;4342184;32;33211;-87
2022/05/26 10:45:16;;;;;;;0.90;0.30;;;;;;;28.83;26.46;100444.59;4359728;32;33317;-88
2022/05/26 10:48:08;;;;;;;0.47;0.35;;;;;;;29.07;26.27;100443.78;4332540;32;32845;-85
2022/05/26 10:50:40;;;;;;;0.40;0.30;;;;;;;29.18;28.38;100450.72;4367866;32;33527;-88
2022/05/26 10:53:14;;;;;;;0.47;0.40;;;;;;;29.21;26.24;100447.66;4367267;32;34530;-88
2022/05/26 10:55:58;;;;;;;0.73;0.40;;;;;;;29.25;25.65;100440.03;4353288;32;31110;-87
2022/05/26 10:58:38;;;;;;;1.25;0.55;;;;;;;28.84;27.81;100443.56;4354055;32;34682;-87
2022/05/26 11:01:33;;;;;;;3.95;0.55;;;;;;;29.10;26.77;100445.28;4348228;32;33738;-87
2022/05/26 11:04:19;;;;;;;0.43;0.30;;;;;;;29.32;27.24;100447.28;4353518;32;33254;-85
2022/05/26 11:06:50;;;;;;;0.85;0.50;;;;;;;28.36;26.34;100447.09;4356355;32;34333;-85
2022/05/26 11:09:25;;;;;;;2.55;0.60;;;;;;;28.78;27.28;100446.97;4356040;32;32477;-86
2022/05/26 11:12:00;;;;;;;5.05;0.47;;;;;;;29.03;27.48;100444.28;4356677;32;33134;-88
2022/05/26 11:17:48;;;;;;;0.30;0.30;;;;;;;29.18;28.19;100433.56;4355879;32;33753;-86
2022/05/26 11:20:42;;;;;;;3.17;0.40;;;;;;;29.48;26.17;100429.22;4367711;32;34394;-85
2022/05/26 11:23:17;;;;;;;0.60;0.50;;;;;;;29.37;27.98;100424.16;4355681;32;34818;-86
2022/05/26 11:26:32;;;;;;;1.30;0.40;;;;;;;29.65;27.55;100414.59;4344735;32;33612;-87
2022/05/26 11:29:29;;;;;;;0.60;0.35;;;;;;;29.12;26.28;100423.37;4354852;32;32808;-88
2022/05/26 11:38:17;;;;;;;0.77;0.40;;;;;;;28.99;26.82;100413.87;4355605;32;33666;-92
2022/05/26 11:40:59;;;;;;;1.37;0.40;;;;;;;28.17;27.38;100421.03;4366810;32;32180;-90
2022/05/26 11:43:30;;;;;;;2.83;0.45;;;;;;;28.55;31.30;100418.75;4365670;32;33745;-88
2022/05/26 11:46:00;;;;;;;1.17;0.40;;;;;;;29.08;27.31;100412.00;4355360;32;33415;-87
2022/05/26 11:48:31;;;;;;;0.62;0.30;;;;;;;29.27;27.49;100414.31;4358274;32;32921;-87
2022/05/26 11:51:29;;;;;;;1.90;0.37;;;;;;;29.70;27.12;100409.47;4356796;32;33087;-89
2022/05/26 11:53:59;;;;;;;0.70;0.52;;;;;;;29.68;26.90;100397.09;4366320;32;32868;-89
2022/05/26 11:56:28;;;;;;;1.30;0.57;;;;;;;29.40;26.28;100402.91;4361910;32;32501;-90
2022/05/26 11:59:23;;;;;;;2.85;0.40;;;;;;;29.12;26.18;100391.59;4359474;32;33739;-88
2022/05/26 12:01:58;;;;;;;0.70;0.37;;;;;;;29.03;26.12;100400.78;4356259;32;33303;-89
2022/05/26 12:04:30;;;;;;;0.77;0.40;;;;;;;28.74;26.39;100395.84;4357781;32;32958;-88
2022/05/26 12:07:14;;;;;;;2.47;0.40;;;;;;;28.89;26.67;100394.13;4344500;32;33165;-89
2022/05/26 12:09:48;;;;;;;3.60;0.43;;;;;;;28.77;25.75;100390.03;4352644;32;33300;-89
2022/05/26 12:12:22;;;;;;;3.92;0.60;;;;;;;28.64;27.06;100390.59;4359701;32;33014;-89
2022/05/26 12:14:52;;;;;;;3.05;0.40;;;;;;;27.91;28.43;100390.41;4382944;32;33087;-90
2022/05/26 12:17:34;;;;;;;2.30;0.43;;;;;;;27.84;27.21;100386.66;4373681;32;34161;-89
2022/05/26 12:20:11;;;;;;;0.93;0.30;;;;;;;28.00;26.69;100378.56;4364821;32;32918;-89
2022/05/26 12:22:51;;;;;;;2.60;0.50;;;;;;;27.80;28.35;100370.69;4365973;32;32650;-88
2022/05/26 12:25:34;;;;;;;0.70;0.65;;;;;;;28.28;28.67;100382.69;4357328;32;33492;-88
2022/05/26 12:31:21;;;;;;;0.70;0.30;;;;;;;28.28;29.38;100371.00;4368619;32;34159;-89
2022/05/26 12:34:06;;;;;;;0.63;0.40;;;;;;;28.06;28.41;100376.06;4350632;32;32248;-89
2022/05/26 12:36:54;;;;;;;2.33;0.57;;;;;;;27.62;28.41;100372.63;4348293;32;32868;-91
2022/05/26 12:39:51;;;;;;;1.77;0.40;;;;;;;27.56;29.56;100368.72;4358944;32;33877;-91
2022/05/26 12:42:30;;;;;;;0.70;0.40;;;;;;;27.69;30.20;100368.28;4355917;32;33303;-90
2022/05/26 12:45:36;;;;;;;0.88;0.50;;;;;;;27.92;28.06;100365.00;4368327;32;33135;-91
2022/05/26 12:48:56;;;;;;;0.80;0.50;;;;;;;27.42;29.54;100371.19;4349819;32;35864;-91
2022/05/26 12:51:38;;;;;;;0.80;0.40;;;;;;;27.52;28.33;100371.91;4370258;32;33081;-89
2022/05/26 12:54:14;;;;;;;0.98;0.52;;;;;;;27.74;29.49;100371.38;4367575;32;32124;-89
2022/05/26 12:56:59;;;;;;;0.52;0.20;;;;;;;27.72;28.96;100362.53;4366807;32;33338;-89
2022/05/26 12:59:32;;;;;;;0.25;0.20;;;;;;;27.74;27.79;100362.37;4347025;32;33773;-88
2022/05/26 13:07:34;;;;;;;2.15;0.52;;;;;;;28.44;28.24;100356.59;4372451;32;32243;-90
2022/05/26 13:10:05;;;;;;;0.68;0.40;;;;;;;28.48;27.71;100345.22;4361731;32;33646;-89
2022/05/26 13:12:35;;;;;;;0.57;0.40;;;;;;;28.61;28.65;100358.31;4360118;32;33491;-87
2022/05/26 13:15:06;;;;;;;1.85;0.40;;;;;;;28.68;28.10;100353.06;4349354;32;33855;-87
2022/05/26 13:17:47;;;;;;;2.15;0.40;;;;;;;28.91;27.87;100350.47;4347720;32;33168;-88
2022/05/26 13:20:34;;;;;;;1.12;0.40;;;;;;;29.17;26.35;100342.13;4354625;32;33868;-87
2022/05/26 13:23:26;;;;;;;0.95;0.40;;;;;;;29.40;26.62;100336.78;4360145;32;33415;-90
2022/05/26 13:25:56;;;;;;;1.40;0.30;;;;;;;28.95;25.90;100339.09;4358904;32;32922;-89
2022/05/26 13:37:19;;;;;;;1.90;0.50;;;;;;;28.46;26.64;100327.41;4357344;32;32716;-89